Time;durP1;ratioP1;P1;durP2;ratioP2;P2;SDS_P1;SDS_P2;PMS_P1;PMS_P2;Temp;Humidity;BMP_temperature;BMP_pressure;BME280_temperature;BME280_humidity;BME280_pressure;Samples;Min_cycle;Max_cycle;Signal;HPM_P1;HPM_P2
2023/03/07 00:00:56;;;;;;;7.50;3.97;;;;;;;2.76;100.00;99812.19;5115636;28;20100;-82
2023/03/07 00:03:21;;;;;;;6.67;4.20;;;;;;;2.74;100.00;99817.72;5115777;28;20027;-83
2023/03/07 00:05:47;;;;;;;6.00;3.33;;;;;;;2.75;100.00;99818.56;5098721;28;20283;-84
2023/03/07 00:08:12;;;;;;;7.43;3.17;;;;;;;2.72;100.00;99811.75;5116791;28;20091;-83
2023/03/07 00:10:38;;;;;;;5.10;2.60;;;;;;;2.65;100.00;99816.19;5082335;28;20111;-83
2023/03/07 00:13:03;;;;;;;3.15;1.80;;;;;;;2.59;100.00;99816.94;5098817;28;20456;-83
2023/03/07 00:15:29;;;;;;;3.73;1.70;;;;;;;2.49;100.00;99819.91;5116363;28;20102;-83
2023/03/07 00:17:56;;;;;;;2.45;1.30;;;;;;;2.43;100.00;99809.97;5115008;28;20051;-83
2023/03/07 00:20:21;;;;;;;3.95;1.30;;;;;;;2.37;100.00;99800.81;5098823;28;20039;-83
2023/03/07 00:22:47;;;;;;;2.47;1.25;;;;;;;2.36;100.00;99801.00;5098275;28;20468;-83
2023/03/07 00:25:13;;;;;;;3.00;1.10;;;;;;;2.27;100.00;99795.78;5114809;28;20024;-83
2023/03/07 00:27:40;;;;;;;3.40;1.13;;;;;;;2.26;100.00;99793.28;5114757;28;20071;-83
2023/03/07 00:30:06;;;;;;;4.03;1.20;;;;;;;2.22;100.00;99794.69;5114945;28;20135;-83
2023/03/07 00:32:32;;;;;;;2.65;1.10;;;;;;;2.21;100.00;99798.38;5114680;28;20039;-83
2023/03/07 00:34:59;;;;;;;2.10;0.93;;;;;;;2.20;100.00;99778.81;5115156;28;20111;-83
2023/03/07 00:37:25;;;;;;;1.90;0.95;;;;;;;2.26;100.00;99780.72;5098484;28;20039;-83
2023/03/07 00:39:50;;;;;;;2.27;0.97;;;;;;;2.25;100.00;99792.44;5114965;28;20440;-83
2023/03/07 00:42:16;;;;;;;1.67;0.65;;;;;;;2.25;100.00;99779.06;5097461;28;20311;-83
2023/03/07 00:44:41;;;;;;;2.37;0.70;;;;;;;2.31;100.00;99795.41;5098045;28;20365;-83
2023/03/07 00:47:07;;;;;;;2.93;0.90;;;;;;;2.31;100.00;99780.16;5114721;28;20360;-83
2023/03/07 00:49:32;;;;;;;1.50;0.70;;;;;;;2.35;100.00;99781.47;5114960;28;20020;-83
2023/03/07 00:51:57;;;;;;;1.98;0.90;;;;;;;2.37;100.00;99789.28;5097329;28;20544;-83
2023/03/07 00:54:23;;;;;;;1.73;0.83;;;;;;;2.36;100.00;99769.75;5080660;28;20502;-83
2023/03/07 00:56:51;;;;;;;3.53;1.27;;;;;;;2.38;100.00;99780.25;5080204;28;20032;-83
2023/03/07 00:59:17;;;;;;;4.53;1.55;;;;;;;2.38;100.00;99778.41;5097602;28;20088;-83
2023/03/07 01:01:42;;;;;;;2.78;1.25;;;;;;;2.40;100.00;99773.69;5097296;28;20031;-83
2023/03/07 01:04:08;;;;;;;3.17;1.27;;;;;;;2.38;100.00;99775.72;5097963;28;20059;-83
2023/03/07 01:06:34;;;;;;;5.43;1.80;;;;;;;2.42;100.00;99784.19;5097282;28;20038;-83
2023/03/07 01:09:03;;;;;;;3.67;1.63;;;;;;;2.42;100.00;99771.66;5097819;28;20034;-84
2023/03/07 01:11:30;;;;;;;3.83;1.70;;;;;;;2.43;100.00;99770.63;5114119;28;20369;-83
2023/03/07 01:13:57;;;;;;;3.37;1.60;;;;;;;2.45;100.00;99767.75;5113829;28;20024;-83
2023/03/07 01:16:25;;;;;;;3.78;1.88;;;;;;;2.52;100.00;99765.97;5114033;28;20039;-82
2023/03/07 01:18:55;;;;;;;3.90;2.00;;;;;;;2.52;100.00;99768.66;5113717;28;20032;-83
2023/03/07 01:21:29;;;;;;;5.03;2.10;;;;;;;2.52;100.00;99767.84;5114234;28;20071;-83
2023/03/07 01:23:55;;;;;;;5.63;2.70;;;;;;;2.51;100.00;99764.34;5114925;28;20466;-83
2023/03/07 01:26:23;;;;;;;5.20;3.03;;;;;;;2.52;100.00;99763.31;5097140;28;20122;-83
2023/03/07 01:28:51;;;;;;;5.65;2.97;;;;;;;2.52;100.00;99755.28;5113697;28;20023;-83
2023/03/07 01:31:17;;;;;;;5.75;2.85;;;;;;;2.52;100.00;99749.09;5115103;28;20103;-82
2023/03/07 01:33:42;;;;;;;5.87;2.97;;;;;;;2.55;100.00;99746.03;5096422;28;20028;-83
2023/03/07 01:36:37;;;;;;;6.63;3.75;;;;;;;2.57;100.00;99744.84;5079477;28;20388;-83
2023/03/07 01:39:17;;;;;;;7.13;3.60;;;;;;;2.57;100.00;99735.94;5074529;28;20046;-83
2023/03/07 01:41:46;;;;;;;7.07;3.72;;;;;;;2.61;100.00;99734.56;5096905;28;20506;-83
2023/03/07 01:44:26;;;;;;;7.60;3.97;;;;;;;2.60;100.00;99740.97;5096932;28;20031;-83
2023/03/07 01:46:53;;;;;;;8.18;4.45;;;;;;;2.61;100.00;99729.19;5113746;28;20028;-83
2023/03/07 01:49:24;;;;;;;9.73;4.93;;;;;;;2.69;100.00;99738.94;5113698;28;20348;-83
2023/03/07 01:52:01;;;;;;;8.60;4.60;;;;;;;2.66;100.00;99734.84;5113692;28;20264;-83
2023/03/07 01:54:30;;;;;;;7.82;4.50;;;;;;;2.69;100.00;99736.28;5113068;28;20031;-83
2023/03/07 01:56:57;;;;;;;9.30;5.03;;;;;;;2.66;100.00;99725.94;5113016;28;20114;-83
2023/03/07 01:59:30;;;;;;;8.38;4.60;;;;;;;2.67;100.00;99733.78;5113656;28;20421;-83
2023/03/07 02:02:02;;;;;;;10.68;5.32;;;;;;;2.66;100.00;99720.59;5113532;28;20027;-82
2023/03/07 02:04:35;;;;;;;9.85;4.90;;;;;;;2.66;100.00;99726.78;5113263;28;20059;-82
2023/03/07 02:07:02;;;;;;;11.48;5.15;;;;;;;2.65;100.00;99725.13;5113897;28;20031;-83
2023/03/07 02:09:30;;;;;;;11.52;5.43;;;;;;;2.63;100.00;99727.19;5113318;28;20130;-82
2023/03/07 02:11:55;;;;;;;9.48;5.30;;;;;;;2.64;100.00;99707.38;5113112;28;20050;-83
2023/03/07 02:14:21;;;;;;;10.60;4.87;;;;;;;2.62;100.00;99718.28;5114266;28;20028;-82
2023/03/07 02:16:47;;;;;;;10.70;5.20;;;;;;;2.63;100.00;99708.44;5115045;28;20310;-82
2023/03/07 02:19:35;;;;;;;9.85;5.57;;;;;;;2.65;100.00;99701.03;5095965;28;20035;-82
2023/03/07 02:22:11;;;;;;;10.77;4.77;;;;;;;2.60;100.00;99711.50;5114394;28;20028;-82
2023/03/07 02:24:56;;;;;;;11.30;4.95;;;;;;;2.61;100.00;99713.97;5112898;28;20024;-82
2023/03/07 02:27:24;;;;;;;9.70;4.60;;;;;;;2.59;100.00;99701.78;5113816;28;20035;-83
2023/03/07 02:29:50;;;;;;;9.35;4.63;;;;;;;2.59;100.00;99702.63;5113817;28;20043;-82
2023/03/07 02:32:15;;;;;;;10.20;4.50;;;;;;;2.59;100.00;99689.22;5112995;28;20031;-82
2023/03/07 02:34:41;;;;;;;9.38;3.75;;;;;;;2.58;100.00;99689.41;5113758;28;20038;-82
2023/03/07 02:37:11;;;;;;;9.97;4.10;;;;;;;2.58;100.00;99687.59;5112754;28;20031;-82
2023/03/07 02:39:40;;;;;;;9.38;4.45;;;;;;;2.55;100.00;99687.94;5112724;28;20016;-82
2023/03/07 02:42:13;;;;;;;7.82;3.05;;;;;;;2.56;100.00;99689.59;5112292;28;20040;-82
2023/03/07 02:44:38;;;;;;;8.13;3.58;;;;;;;2.54;100.00;99682.78;5112694;28;20066;-82
2023/03/07 02:47:07;;;;;;;10.30;3.83;;;;;;;2.52;100.00;99684.84;5095391;28;20066;-82
2023/03/07 02:49:34;;;;;;;8.40;3.45;;;;;;;2.53;100.00;99681.16;5113602;28;20043;-82
2023/03/07 02:52:00;;;;;;;7.85;4.00;;;;;;;2.54;100.00;99680.09;5113647;28;20084;-82
2023/03/07 02:54:25;;;;;;;9.73;4.03;;;;;;;2.50;100.00;99695.72;5095611;28;20036;-83
2023/03/07 02:56:52;;;;;;;8.13;3.70;;;;;;;2.51;100.00;99686.69;5112826;28;20032;-83
2023/03/07 02:59:17;;;;;;;9.32;4.05;;;;;;;2.50;100.00;99695.72;5095640;28;20039;-83
2023/03/07 03:01:43;;;;;;;9.80;3.80;;;;;;;2.47;100.00;99690.75;5095663;28;20063;-83
2023/03/07 03:04:08;;;;;;;9.27;4.20;;;;;;;2.48;100.00;99673.69;5095474;28;20027;-83
2023/03/07 03:06:34;;;;;;;9.93;4.53;;;;;;;2.46;100.00;99689.91;5095483;28;20054;-82
2023/03/07 03:09:02;;;;;;;13.60;3.97;;;;;;;2.45;100.00;99676.72;5078778;28;20043;-82
2023/03/07 03:11:27;;;;;;;11.65;4.38;;;;;;;2.46;100.00;99681.06;5079648;28;20352;-82
2023/03/07 03:13:53;;;;;;;12.57;4.43;;;;;;;2.47;100.00;99677.38;5113832;28;20042;-82
2023/03/07 03:16:18;;;;;;;11.47;4.77;;;;;;;2.46;100.00;99689.09;5112783;28;20130;-82
2023/03/07 03:18:44;;;;;;;8.73;3.80;;;;;;;2.48;100.00;99683.56;5095453;28;20027;-82
2023/03/07 03:21:10;;;;;;;9.48;4.30;;;;;;;2.44;100.00;99689.28;5114484;28;20040;-82
2023/03/07 03:23:36;;;;;;;13.13;4.77;;;;;;;2.44;100.00;99667.88;5116258;28;20026;-82
2023/03/07 03:26:10;;;;;;;10.70;4.47;;;;;;;2.46;100.00;99678.38;5099063;28;20035;-81
2023/03/07 03:28:36;;;;;;;8.70;4.35;;;;;;;2.44;100.00;99675.09;5116456;28;20031;-87
2023/03/07 03:31:07;;;;;;;9.90;4.13;;;;;;;2.45;100.00;99680.25;5117190;28;20051;-82
2023/03/07 03:33:35;;;;;;;9.57;4.73;;;;;;;2.46;100.00;99668.50;5117486;28;20027;-81
2023/03/07 03:36:07;;;;;;;13.55;5.25;;;;;;;2.48;100.00;99662.13;5116368;28;20036;-82
2023/03/07 03:38:32;;;;;;;12.20;4.68;;;;;;;2.49;100.00;99669.16;5116312;28;20023;-82
2023/03/07 03:40:58;;;;;;;13.83;5.23;;;;;;;2.46;100.00;99663.13;5102035;27;20057;-82
2023/03/07 03:43:24;;;;;;;11.15;4.57;;;;;;;2.48;100.00;99660.31;5086330;27;20023;-82
2023/03/07 03:45:54;;;;;;;10.53;4.80;;;;;;;2.42;100.00;99656.53;5118907;27;20070;-82
2023/03/07 03:48:20;;;;;;;11.77;5.53;;;;;;;2.42;100.00;99661.03;5137764;27;20054;-82
2023/03/07 03:50:46;;;;;;;10.83;4.97;;;;;;;2.45;100.00;99649.94;5119107;27;20066;-82
2023/03/07 03:53:11;;;;;;;12.43;5.55;;;;;;;2.41;100.00;99654.88;5085551;27;20087;-82
2023/03/07 03:55:36;;;;;;;10.70;5.07;;;;;;;2.41;100.00;99651.38;5119897;27;20027;-83
2023/03/07 03:58:02;;;;;;;13.87;5.50;;;;;;;2.43;100.00;99638.63;5101864;27;20475;-83
2023/03/07 04:00:27;;;;;;;13.80;5.73;;;;;;;2.43;100.00;99635.94;5102003;27;20076;-82
2023/03/07 04:02:53;;;;;;;13.07;5.28;;;;;;;2.45;100.00;99634.72;5119182;27;20039;-82
2023/03/07 04:05:18;;;;;;;12.88;4.85;;;;;;;2.42;100.00;99621.72;5102130;27;20029;-82
2023/03/07 04:07:44;;;;;;;11.53;4.93;;;;;;;2.41;100.00;99632.63;5101788;27;20031;-83
2023/03/07 04:10:10;;;;;;;11.37;4.70;;;;;;;2.39;100.00;99626.63;5085138;27;20054;-82
2023/03/07 04:12:35;;;;;;;12.23;4.88;;;;;;;2.38;100.00;99622.31;5084627;27;20027;-82
2023/03/07 04:15:00;;;;;;;13.83;4.47;;;;;;;2.37;100.00;99615.28;5136881;27;20027;-82
2023/03/07 04:17:26;;;;;;;7.03;3.83;;;;;;;2.39;100.00;99615.91;5119166;27;20039;-82
2023/03/07 04:19:51;;;;;;;11.18;4.85;;;;;;;2.35;100.00;99606.59;5136796;27;20498;-82
2023/03/07 04:22:17;;;;;;;10.32;4.85;;;;;;;2.34;100.00;99604.97;5118681;27;20483;-82
2023/03/07 04:24:44;;;;;;;8.90;3.87;;;;;;;2.33;100.00;99604.13;5102007;27;20463;-82
2023/03/07 04:27:09;;;;;;;10.80;4.20;;;;;;;2.33;100.00;99609.47;5084669;27;20019;-82
2023/03/07 04:29:35;;;;;;;11.27;4.13;;;;;;;2.34;100.00;99595.09;5118313;27;20031;-82
2023/03/07 04:32:00;;;;;;;8.27;3.93;;;;;;;2.33;100.00;99604.13;5117581;27;20470;-82
2023/03/07 04:34:26;;;;;;;9.57;3.97;;;;;;;2.33;100.00;99589.91;5084402;27;20341;-82
2023/03/07 04:36:51;;;;;;;9.57;4.23;;;;;;;2.34;100.00;99594.25;5101896;27;20038;-82
2023/03/07 04:39:17;;;;;;;10.03;4.20;;;;;;;2.36;100.00;99598.41;5118298;27;20027;-82
2023/03/07 04:41:45;;;;;;;12.70;4.40;;;;;;;2.34;100.00;99596.94;5100397;27;20058;-82
2023/03/07 04:44:10;;;;;;;13.48;4.28;;;;;;;2.36;100.00;99589.53;5136797;27;20058;-82
2023/03/07 04:46:36;;;;;;;11.95;4.53;;;;;;;2.33;100.00;99580.03;5118419;27;20115;-82
2023/03/07 04:49:01;;;;;;;10.17;4.50;;;;;;;2.34;100.00;99588.91;5101320;27;20128;-82
2023/03/07 04:51:27;;;;;;;14.30;4.70;;;;;;;2.35;100.00;99591.41;5117774;27;20119;-83
2023/03/07 04:53:52;;;;;;;11.75;4.10;;;;;;;2.35;100.00;99591.41;5101023;27;20023;-82
2023/03/07 04:56:18;;;;;;;11.63;4.53;;;;;;;2.33;100.00;99584.56;5100955;27;20046;-82
2023/03/07 04:58:44;;;;;;;12.20;4.63;;;;;;;2.32;100.00;99582.91;5135993;27;20058;-85
2023/03/07 05:01:10;;;;;;;11.05;4.65;;;;;;;2.32;100.00;99577.53;5118085;27;20027;-82
2023/03/07 05:03:37;;;;;;;10.30;4.70;;;;;;;2.32;100.00;99583.75;5101042;27;20447;-82
2023/03/07 05:06:09;;;;;;;10.82;4.85;;;;;;;2.32;100.00;99582.91;5101031;27;20114;-82
2023/03/07 05:08:34;;;;;;;11.35;4.45;;;;;;;2.35;100.00;99583.38;5135969;27;20117;-81
2023/03/07 05:11:00;;;;;;;12.27;4.73;;;;;;;2.30;100.00;99583.09;5117906;27;20513;-82
2023/03/07 05:13:25;;;;;;;11.38;3.88;;;;;;;2.33;100.00;99592.59;5136247;27;20447;-82
2023/03/07 05:15:52;;;;;;;12.57;4.47;;;;;;;2.27;100.00;99570.94;5136240;27;20035;-82
2023/03/07 05:18:18;;;;;;;10.63;4.78;;;;;;;2.27;100.00;99578.97;5117420;27;20031;-82
2023/03/07 05:20:44;;;;;;;13.07;4.70;;;;;;;2.28;100.00;99582.47;5135736;27;20076;-82
2023/03/07 05:23:12;;;;;;;11.40;4.75;;;;;;;2.31;100.00;99563.34;5117189;27;20296;-82
2023/03/07 05:25:38;;;;;;;15.20;5.03;;;;;;;2.28;100.00;99556.53;5117623;27;20027;-83
2023/03/07 05:28:03;;;;;;;17.53;5.13;;;;;;;2.31;100.00;99554.50;5100258;27;20099;-82
2023/03/07 05:30:28;;;;;;;15.27;5.10;;;;;;;2.30;100.00;99558.19;5083117;27;20039;-82
2023/03/07 05:32:54;;;;;;;11.90;4.95;;;;;;;2.30;100.00;99539.44;5117241;27;20031;-82
2023/03/07 05:35:23;;;;;;;15.35;5.20;;;;;;;2.31;100.00;99541.94;5100785;27;20089;-83
2023/03/07 05:37:51;;;;;;;13.10;5.47;;;;;;;2.31;100.00;99539.25;5100551;27;20467;-82
2023/03/07 05:40:18;;;;;;;14.95;5.05;;;;;;;2.36;100.00;99541.34;5099630;27;20448;-82
2023/03/07 05:42:44;;;;;;;15.05;5.55;;;;;;;2.38;100.00;99547.34;5099162;27;20047;-82
2023/03/07 05:45:10;;;;;;;17.80;5.67;;;;;;;2.38;100.00;99542.81;5099316;27;20039;-82
2023/03/07 05:47:37;;;;;;;17.38;6.00;;;;;;;2.38;100.00;99542.81;5117110;27;20027;-82
2023/03/07 05:50:03;;;;;;;17.58;6.38;;;;;;;2.39;100.00;99544.47;5116685;27;20031;-82
2023/03/07 05:52:29;;;;;;;18.30;5.82;;;;;;;2.42;100.00;99545.91;5116968;27;20038;-82
2023/03/07 05:54:54;;;;;;;16.27;5.43;;;;;;;2.41;100.00;99542.44;5116913;27;20054;-82
2023/03/07 05:57:21;;;;;;;12.03;4.93;;;;;;;2.39;100.00;99543.63;5117140;27;20039;-82
2023/03/07 05:59:46;;;;;;;18.85;6.25;;;;;;;2.40;100.00;99543.44;5116691;27;20114;-82
2023/03/07 06:02:12;;;;;;;13.67;5.77;;;;;;;2.39;100.00;99528.41;5116349;27;20138;-82
2023/03/07 06:04:37;;;;;;;17.00;6.23;;;;;;;2.39;100.00;99536.44;5116515;27;20035;-81
2023/03/07 06:07:02;;;;;;;18.52;5.45;;;;;;;2.39;100.00;99539.13;5082784;27;20519;-82
2023/03/07 06:09:28;;;;;;;17.50;5.60;;;;;;;2.36;100.00;99546.69;5099452;27;20118;-82
2023/03/07 06:11:53;;;;;;;11.07;4.83;;;;;;;2.34;100.00;99543.41;5134896;27;20031;-81
2023/03/07 06:14:19;;;;;;;12.87;4.80;;;;;;;2.31;100.00;99543.78;5134621;27;20044;-81
2023/03/07 06:16:45;;;;;;;13.55;5.35;;;;;;;2.25;100.00;99538.19;5116456;27;20031;-82
2023/03/07 06:19:10;;;;;;;13.03;5.20;;;;;;;2.26;100.00;99536.34;5116930;27;20033;-81
2023/03/07 06:21:36;;;;;;;11.90;5.10;;;;;;;2.26;100.00;99536.34;5099453;27;20471;-81
2023/03/07 06:24:02;;;;;;;11.60;5.00;;;;;;;2.24;100.00;99538.38;5115853;27;20280;-81
2023/03/07 06:26:27;;;;;;;14.90;5.10;;;;;;;2.25;100.00;99540.84;5115980;27;20168;-81
2023/03/07 06:28:53;;;;;;;11.77;4.53;;;;;;;2.20;100.00;99537.94;5098997;27;20042;-83
2023/03/07 06:31:22;;;;;;;12.70;4.13;;;;;;;2.14;100.00;99562.81;5099572;27;20031;-81
2023/03/07 06:33:48;;;;;;;9.02;3.63;;;;;;;2.00;100.00;99561.81;5099487;28;20475;-82
2023/03/07 06:36:17;;;;;;;10.82;3.60;;;;;;;1.89;100.00;99567.69;5115562;27;20046;-82
2023/03/07 06:38:42;;;;;;;6.90;3.20;;;;;;;1.78;100.00;99555.63;5116189;28;20027;-82
2023/03/07 06:41:11;;;;;;;8.50;2.92;;;;;;;1.74;100.00;99557.03;5115485;28;20084;-88
2023/03/07 06:43:37;;;;;;;9.23;3.25;;;;;;;1.69;100.00;99556.78;5111624;28;20044;-81
2023/03/07 06:46:04;;;;;;;11.20;4.30;;;;;;;1.64;100.00;99551.16;5112896;28;20522;-83
2023/03/07 06:48:29;;;;;;;11.00;4.60;;;;;;;1.49;100.00;99549.38;5096098;28;20382;-82
2023/03/07 06:50:55;;;;;;;9.63;4.53;;;;;;;1.45;100.00;99547.25;5096006;28;20501;-82
2023/03/07 06:53:20;;;;;;;12.00;4.35;;;;;;;1.41;100.00;99557.50;5112231;28;20039;-82
2023/03/07 06:55:50;;;;;;;12.70;4.75;;;;;;;1.36;100.00;99558.06;5098201;28;20156;-81
2023/03/07 06:58:17;;;;;;;9.13;3.78;;;;;;;1.33;100.00;99568.28;5117176;28;20460;-82
2023/03/07 07:00:43;;;;;;;10.45;4.60;;;;;;;1.30;100.00;99563.31;5116463;28;20084;-82
2023/03/07 07:03:13;;;;;;;10.27;4.65;;;;;;;1.24;100.00;99572.94;5099643;28;20032;-82
2023/03/07 07:05:42;;;;;;;9.15;4.30;;;;;;;1.13;100.00;99568.84;5117787;28;20027;-82
2023/03/07 07:08:08;;;;;;;11.13;4.45;;;;;;;1.09;100.00;99567.56;5116341;28;20030;-82
2023/03/07 07:10:34;;;;;;;10.37;5.17;;;;;;;1.01;100.00;99571.16;5099160;28;20035;-82
2023/03/07 07:12:59;;;;;;;9.05;4.43;;;;;;;0.93;100.00;99568.59;5082806;28;20474;-82
2023/03/07 07:15:25;;;;;;;10.67;4.57;;;;;;;0.82;100.00;99572.53;5117724;28;20032;-82
2023/03/07 07:17:51;;;;;;;12.23;4.97;;;;;;;0.77;100.00;99560.75;5098778;28;20027;-82
2023/03/07 07:20:17;;;;;;;9.85;4.30;;;;;;;0.72;100.00;99569.31;5115524;28;20019;-81
2023/03/07 07:22:43;;;;;;;11.50;4.60;;;;;;;0.72;100.00;99561.28;5115584;28;20383;-81
2023/03/07 07:25:09;;;;;;;16.10;5.20;;;;;;;0.70;100.00;99558.00;5117052;28;20034;-81
2023/03/07 07:27:35;;;;;;;13.98;5.45;;;;;;;0.65;100.00;99566.56;5116240;28;20398;-82
2023/03/07 07:30:05;;;;;;;14.43;4.77;;;;;;;0.68;100.00;99568.84;5116259;28;20036;-81
2023/03/07 07:32:31;;;;;;;13.35;4.93;;;;;;;0.70;100.00;99566.81;5117513;28;20032;-81
2023/03/07 07:34:56;;;;;;;14.95;5.20;;;;;;;0.64;100.00;99583.56;5115616;28;20108;-82
2023/03/07 07:37:22;;;;;;;15.27;5.60;;;;;;;0.62;100.00;99592.75;5116742;28;20405;-82
2023/03/07 07:39:48;;;;;;;13.77;5.38;;;;;;;0.58;100.00;99610.19;5116071;28;20414;-81
2023/03/07 07:42:14;;;;;;;16.40;5.25;;;;;;;0.58;100.00;99604.84;5116892;28;20376;-81
2023/03/07 07:44:40;;;;;;;15.50;6.00;;;;;;;0.53;100.00;99608.03;5098854;28;20048;-82
2023/03/07 07:47:05;;;;;;;17.00;5.40;;;;;;;0.39;100.00;99622.19;5115679;28;20023;-82
2023/03/07 07:49:31;;;;;;;14.25;5.38;;;;;;;0.36;100.00;99620.69;5098391;28;20035;-81
2023/03/07 07:51:56;;;;;;;16.07;5.80;;;;;;;0.38;100.00;99624.00;5098468;28;20112;-81
2023/03/07 07:54:22;;;;;;;18.93;5.97;;;;;;;0.42;100.00;99627.97;5115016;28;20059;-81
2023/03/07 07:56:47;;;;;;;14.23;5.80;;;;;;;0.43;100.00;99621.63;5097530;28;20023;-82
2023/03/07 07:59:12;;;;;;;16.25;5.78;;;;;;;0.45;100.00;99622.28;5098015;28;20039;-82
2023/03/07 08:01:40;;;;;;;13.07;5.43;;;;;;;0.50;100.00;99611.06;5081337;28;20035;-81
2023/03/07 08:04:06;;;;;;;16.48;5.90;;;;;;;0.57;100.00;99600.50;5097967;28;20055;-81
2023/03/07 08:06:32;;;;;;;15.83;6.50;;;;;;;0.59;100.00;99606.47;5097007;28;20086;-81
2023/03/07 08:08:58;;;;;;;14.43;6.10;;;;;;;0.60;100.00;99622.31;5115212;28;20028;-81
2023/03/07 08:11:27;;;;;;;15.88;6.45;;;;;;;0.63;100.00;99618.47;5115919;28;20508;-81
2023/03/07 08:13:52;;;;;;;18.20;5.53;;;;;;;0.60;100.00;99627.66;5098380;28;20092;-81
2023/03/07 08:16:23;;;;;;;14.77;5.45;;;;;;;0.59;100.00;99630.50;5115821;28;20028;-81
2023/03/07 08:18:54;;;;;;;17.33;5.82;;;;;;;0.60;100.00;99633.00;5115535;28;20035;-81
2023/03/07 08:21:20;;;;;;;15.02;6.00;;;;;;;0.60;100.00;99641.00;5115980;28;20023;-81
2023/03/07 08:23:45;;;;;;;18.38;7.03;;;;;;;0.61;100.00;99649.84;5114813;28;20395;-81
2023/03/07 08:26:12;;;;;;;18.47;6.50;;;;;;;0.63;100.00;99645.16;5081472;28;20031;-81
2023/03/07 08:28:37;;;;;;;18.60;6.85;;;;;;;0.63;100.00;99647.81;5098110;28;20130;-81
2023/03/07 08:31:07;;;;;;;18.57;6.47;;;;;;;0.68;100.00;99643.59;5097827;28;20589;-81
2023/03/07 08:33:33;;;;;;;15.85;5.80;;;;;;;0.81;100.00;99647.50;5113985;28;20035;-81
2023/03/07 08:35:58;;;;;;;13.10;5.47;;;;;;;0.88;100.00;99643.91;5114898;28;20042;-81
2023/03/07 08:38:25;;;;;;;14.40;5.93;;;;;;;0.96;100.00;99637.69;5114465;28;20391;-81
2023/03/07 08:40:51;;;;;;;14.02;5.18;;;;;;;0.97;100.00;99650.00;5097789;28;20028;-81
2023/03/07 08:43:16;;;;;;;16.05;5.07;;;;;;;1.04;100.00;99642.09;5099004;27;20369;-81
2023/03/07 08:45:42;;;;;;;12.23;5.00;;;;;;;1.10;100.00;99646.72;5101052;27;20055;-81
2023/03/07 08:48:11;;;;;;;12.95;5.13;;;;;;;1.10;100.00;99649.38;5083929;27;20046;-81
2023/03/07 08:50:38;;;;;;;13.13;5.15;;;;;;;1.03;100.00;99645.78;5118489;27;20062;-81
2023/03/07 08:53:03;;;;;;;16.80;5.80;;;;;;;0.96;100.00;99647.50;5100891;27;20134;-81
2023/03/07 08:55:29;;;;;;;12.82;5.28;;;;;;;0.96;100.00;99650.19;5100961;27;20059;-81
2023/03/07 08:57:54;;;;;;;12.77;5.40;;;;;;;1.01;100.00;99653.97;5117901;27;20051;-81
2023/03/07 09:00:20;;;;;;;12.63;5.63;;;;;;;1.07;100.00;99639.06;5100414;27;20030;-81
2023/03/07 09:02:46;;;;;;;13.63;5.45;;;;;;;1.15;100.00;99638.13;5100693;27;20292;-81
2023/03/07 09:05:11;;;;;;;15.33;5.63;;;;;;;1.23;100.00;99646.06;5083679;27;20038;-82
2023/03/07 09:07:37;;;;;;;14.38;6.28;;;;;;;1.33;100.00;99635.09;5100785;27;20134;-82
2023/03/07 09:10:05;;;;;;;17.60;6.43;;;;;;;1.40;100.00;99642.22;5100342;27;20023;-81
2023/03/07 09:12:32;;;;;;;14.50;6.47;;;;;;;1.45;100.00;99638.13;5100213;27;20035;-81
2023/03/07 09:14:58;;;;;;;17.63;6.88;;;;;;;1.53;100.00;99638.84;5135694;27;20059;-81
2023/03/07 09:17:23;;;;;;;17.37;7.03;;;;;;;1.51;100.00;99638.22;5100428;27;20156;-81
2023/03/07 09:19:49;;;;;;;19.50;7.90;;;;;;;1.42;100.00;99643.84;5100514;27;20411;-82
2023/03/07 09:22:15;;;;;;;19.85;8.27;;;;;;;1.30;100.00;99648.81;5100087;27;20023;-81
2023/03/07 09:24:41;;;;;;;20.58;8.70;;;;;;;1.31;100.00;99656.66;5100132;27;20039;-81
2023/03/07 09:27:07;;;;;;;21.77;8.95;;;;;;;1.37;100.00;99652.41;5117661;27;20473;-81
2023/03/07 09:29:32;;;;;;;25.57;9.97;;;;;;;1.38;100.00;99656.75;5117137;27;20463;-82
2023/03/07 09:31:57;;;;;;;22.73;9.70;;;;;;;1.46;100.00;99661.19;5116912;27;20475;-81
2023/03/07 09:34:23;;;;;;;22.83;9.60;;;;;;;1.44;100.00;99669.38;5099799;27;20023;-81
2023/03/07 09:36:51;;;;;;;20.05;9.27;;;;;;;1.49;100.00;99668.81;5116996;27;20020;-81
2023/03/07 09:39:17;;;;;;;23.60;9.37;;;;;;;1.55;100.00;99665.41;5100214;27;20463;-81
2023/03/07 09:41:55;;;;;;;19.50;9.13;;;;;;;1.58;100.00;99660.53;5117055;27;20031;-81
2023/03/07 09:44:50;;;;;;;20.63;9.57;;;;;;;1.56;100.00;99667.88;5116545;27;20528;-81
2023/03/07 09:47:42;;;;;;;18.45;8.80;;;;;;;1.49;100.00;99660.81;5116829;27;20508;-81
2023/03/07 09:50:22;;;;;;;17.73;8.77;;;;;;;1.57;100.00;99663.41;5135297;27;20035;-82
2023/03/07 09:52:52;;;;;;;18.52;8.77;;;;;;;1.65;100.00;99665.13;5135611;27;20099;-81
2023/03/07 09:55:20;;;;;;;19.67;8.73;;;;;;;1.53;100.00;99664.78;5116468;27;20050;-81
2023/03/07 09:57:50;;;;;;;22.75;9.68;;;;;;;1.62;100.00;99655.63;5116675;27;20488;-82
2023/03/07 10:00:40;;;;;;;18.77;8.77;;;;;;;1.78;100.00;99661.81;5116521;27;20019;-82
2023/03/07 10:03:15;;;;;;;21.37;9.40;;;;;;;1.83;100.00;99659.38;5117158;27;20176;-81
2023/03/07 10:05:46;;;;;;;20.98;9.70;;;;;;;1.73;100.00;99654.34;5135039;27;20431;-81
2023/03/07 10:08:30;;;;;;;22.38;9.07;;;;;;;1.81;100.00;99659.56;5135593;27;20046;-82
2023/03/07 10:10:58;;;;;;;20.85;9.30;;;;;;;1.92;100.00;99658.28;5117321;27;20127;-81
2023/03/07 10:13:53;;;;;;;21.13;8.85;;;;;;;1.78;100.00;99662.63;5134766;27;20027;-81
2023/03/07 10:16:47;;;;;;;17.57;8.00;;;;;;;1.68;100.00;99665.59;5116041;27;20122;-82
2023/03/07 10:19:19;;;;;;;18.20;8.45;;;;;;;1.64;100.00;99661.63;5116240;27;20054;-82
2023/03/07 10:21:47;;;;;;;16.45;7.68;;;;;;;1.54;100.00;99658.41;5116842;27;20072;-82
2023/03/07 10:24:22;;;;;;;14.52;6.65;;;;;;;1.47;100.00;99661.00;5134615;27;20524;-81
2023/03/07 10:27:06;;;;;;;12.10;6.30;;;;;;;1.39;100.00;99661.91;5116232;27;20043;-82
2023/03/07 10:29:53;;;;;;;12.10;5.40;;;;;;;1.35;100.00;99662.47;5116034;27;20361;-82
2023/03/07 10:32:42;;;;;;;11.45;5.35;;;;;;;1.31;100.00;99663.84;5116243;27;20031;-82
2023/03/07 10:35:10;;;;;;;10.18;4.85;;;;;;;1.22;100.00;99655.09;5134920;27;20027;-82
2023/03/07 10:37:51;;;;;;;10.95;4.93;;;;;;;1.28;100.00;99662.38;5116246;28;20049;-81
2023/03/07 10:40:22;;;;;;;11.55;4.90;;;;;;;1.39;100.00;99663.78;5116067;27;20028;-81
2023/03/07 10:42:47;;;;;;;10.97;5.33;;;;;;;1.42;100.00;99652.72;5115843;28;20019;-82
2023/03/07 10:45:17;;;;;;;12.25;4.80;;;;;;;1.47;100.00;99660.16;5115526;28;20067;-81
2023/03/07 10:47:44;;;;;;;11.00;5.23;;;;;;;1.47;100.00;99657.50;5116482;28;20077;-83
2023/03/07 10:50:45;;;;;;;9.00;4.53;;;;;;;1.37;100.00;99655.09;5134332;28;20066;-83
2023/03/07 10:53:26;;;;;;;12.15;4.72;;;;;;;1.28;100.00;99661.56;5116841;28;20067;-82
2023/03/07 10:55:52;;;;;;;9.20;3.92;;;;;;;1.35;100.00;99662.47;5116461;28;20401;-81
2023/03/07 10:58:19;;;;;;;9.70;4.13;;;;;;;1.42;100.00;99659.88;5116045;28;20096;-82
2023/03/07 11:00:57;;;;;;;9.37;4.50;;;;;;;1.40;100.00;99660.06;5115247;28;20058;-82
2023/03/07 11:03:25;;;;;;;9.38;4.38;;;;;;;1.39;100.00;99663.78;5115632;28;20038;-81
2023/03/07 11:05:51;;;;;;;10.93;4.50;;;;;;;1.47;100.00;99663.66;5115814;28;20023;-82
2023/03/07 11:08:32;;;;;;;9.50;4.18;;;;;;;1.63;100.00;99667.19;5115403;28;20493;-81
2023/03/07 11:11:03;;;;;;;8.88;4.20;;;;;;;1.69;100.00;99656.53;5133914;28;20045;-82
2023/03/07 11:13:30;;;;;;;8.50;3.93;;;;;;;1.75;100.00;99661.13;5116022;28;20097;-82
2023/03/07 11:16:28;;;;;;;11.02;4.18;;;;;;;1.75;100.00;99660.31;5098968;28;20068;-82
2023/03/07 11:18:56;;;;;;;11.40;4.30;;;;;;;1.89;100.00;99658.63;5043850;28;20043;-81
2023/03/07 11:21:28;;;;;;;10.43;4.20;;;;;;;1.89;100.00;99666.66;5133693;28;20104;-81
2023/03/07 11:24:03;;;;;;;10.88;4.10;;;;;;;2.04;100.00;99663.97;5133928;28;20383;-82
2023/03/07 11:26:38;;;;;;;9.90;4.10;;;;;;;2.20;100.00;99665.56;5116356;28;20363;-81
2023/03/07 11:29:12;;;;;;;10.38;4.40;;;;;;;2.19;100.00;99662.06;5115820;28;20471;-81
2023/03/07 11:31:56;;;;;;;9.63;4.00;;;;;;;2.33;100.00;99659.53;5115256;28;20023;-81
2023/03/07 11:34:44;;;;;;;11.35;4.10;;;;;;;2.49;100.00;99661.94;5133750;28;20023;-81